Time;durP1;ratioP1;P1;durP2;ratioP2;P2;SDS_P1;SDS_P2;PMS_P1;PMS_P2;Temp;Humidity;BMP_temperature;BMP_pressure;BME280_temperature;BME280_humidity;BME280_pressure;Samples;Min_cycle;Max_cycle;Signal;HPM_P1;HPM_P2
2023/02/25 00:01:07;;;;;;;4.00;1.55;;;4.50;99.90;;;;;;4927212;29;20051;-74
2023/02/25 00:03:34;;;;;;;3.88;1.50;;;4.50;99.90;;;;;;4953870;28;20069;-73
2023/02/25 00:06:02;;;;;;;2.72;1.75;;;4.50;99.90;;;;;;4965910;28;20058;-74
2023/02/25 00:08:29;;;;;;;4.13;1.20;;;4.50;99.90;;;;;;4946363;28;20141;-74
2023/02/25 00:10:57;;;;;;;4.55;1.50;;;4.50;99.90;;;;;;4960292;28;20134;-74
2023/02/25 00:13:24;;;;;;;3.35;1.70;;;4.50;99.90;;;;;;4957330;28;20769;-74
2023/02/25 00:15:51;;;;;;;2.67;1.20;;;4.50;99.90;;;;;;4953360;28;20177;-74
2023/02/25 00:18:18;;;;;;;1.95;1.08;;;4.50;99.90;;;;;;4981744;28;20120;-74
2023/02/25 00:20:45;;;;;;;3.97;1.00;;;4.50;99.90;;;;;;4981380;28;20787;-74
2023/02/25 00:23:12;;;;;;;4.80;1.50;;;4.60;99.90;;;;;;4981641;28;20148;-74
2023/02/25 00:25:39;;;;;;;3.40;1.77;;;4.60;99.90;;;;;;4977393;28;20580;-74
2023/02/25 00:28:06;;;;;;;6.38;2.60;;;4.60;99.90;;;;;;4960147;28;20493;-74
2023/02/25 00:30:33;;;;;;;3.47;1.90;;;4.60;99.90;;;;;;4941727;28;20186;-74
2023/02/25 00:33:00;;;;;;;4.45;1.75;;;4.50;99.90;;;;;;4948849;28;20054;-74
2023/02/25 00:35:27;;;;;;;5.32;2.10;;;4.50;99.90;;;;;;4985991;28;20050;-74
2023/02/25 00:37:54;;;;;;;4.03;1.48;;;4.50;99.90;;;;;;4996755;28;20061;-74
2023/02/25 00:40:38;;;;;;;4.10;1.85;;;4.40;99.90;;;;;;4979995;28;20418;-74
2023/02/25 00:43:05;;;;;;;4.57;1.80;;;4.30;99.90;;;;;;4942841;28;20407;-74
2023/02/25 00:45:33;;;;;;;4.47;1.70;;;4.30;99.90;;;;;;4964209;28;20148;-74
2023/02/25 00:47:59;;;;;;;4.38;1.80;;;4.20;99.90;;;;;;4982129;28;20518;-73
2023/02/25 00:50:26;;;;;;;5.55;1.88;;;4.20;99.90;;;;;;4996989;28;20141;-74
2023/02/25 00:52:53;;;;;;;4.75;1.73;;;4.20;99.90;;;;;;4996647;28;20450;-74
2023/02/25 00:55:20;;;;;;;4.15;1.60;;;4.20;99.90;;;;;;4978242;28;20090;-74
2023/02/25 00:57:46;;;;;;;3.97;1.95;;;4.30;99.90;;;;;;4977873;28;20117;-74
2023/02/25 01:00:15;;;;;;;3.08;1.88;;;4.30;99.90;;;;;;4961126;28;20109;-74
2023/02/25 01:02:44;;;;;;;7.13;2.00;;;4.30;99.90;;;;;;4945304;28;20043;-74
2023/02/25 01:05:14;;;;;;;6.03;2.00;;;4.30;99.90;;;;;;4983372;28;20050;-74
2023/02/25 01:07:41;;;;;;;4.95;1.88;;;4.30;99.90;;;;;;4997126;28;20054;-74
2023/02/25 01:10:09;;;;;;;4.88;1.42;;;4.40;99.90;;;;;;4994968;28;20046;-74
2023/02/25 01:12:36;;;;;;;3.38;2.00;;;4.40;99.90;;;;;;4969130;28;20137;-74
2023/02/25 01:15:03;;;;;;;4.28;1.63;;;4.40;99.90;;;;;;4966907;28;20141;-74
2023/02/25 01:17:30;;;;;;;2.22;1.40;;;4.50;99.90;;;;;;4985571;28;20054;-74
2023/02/25 01:19:57;;;;;;;2.55;1.50;;;4.50;99.90;;;;;;4960593;28;20142;-74
2023/02/25 01:22:24;;;;;;;3.63;1.83;;;4.50;99.90;;;;;;4944709;28;20121;-74
2023/02/25 01:24:53;;;;;;;3.58;1.30;;;4.50;99.90;;;;;;4948482;28;20058;-74
2023/02/25 01:27:20;;;;;;;8.20;2.00;;;4.50;99.90;;;;;;4961776;28;20146;-74
2023/02/25 01:29:47;;;;;;;3.47;1.55;;;4.40;99.90;;;;;;4973519;28;20451;-74
2023/02/25 01:32:14;;;;;;;5.50;1.60;;;4.40;99.90;;;;;;4949045;28;20054;-74
2023/02/25 01:34:41;;;;;;;2.50;1.23;;;4.30;99.90;;;;;;4933124;28;20057;-75
2023/02/25 01:37:08;;;;;;;7.18;2.00;;;4.30;99.90;;;;;;4996484;28;20046;-74
2023/02/25 01:39:35;;;;;;;6.07;1.80;;;4.20;99.90;;;;;;4994392;28;20161;-74
2023/02/25 01:42:03;;;;;;;6.05;1.98;;;4.10;99.90;;;;;;4990128;28;20601;-75
2023/02/25 01:44:32;;;;;;;4.25;1.60;;;4.10;99.90;;;;;;4962966;28;20121;-74
2023/02/25 01:47:00;;;;;;;3.72;1.58;;;4.10;99.90;;;;;;4980395;28;20108;-74
2023/02/25 01:49:39;;;;;;;4.63;1.65;;;4.10;99.90;;;;;;4964166;28;20050;-74
2023/02/25 01:52:07;;;;;;;3.15;1.55;;;4.10;99.90;;;;;;4955898;28;20323;-74
2023/02/25 01:54:37;;;;;;;3.88;1.90;;;4.00;99.90;;;;;;4961659;28;20402;-74
2023/02/25 01:57:08;;;;;;;2.75;1.33;;;4.00;99.90;;;;;;4972281;28;20059;-74
2023/02/25 01:59:35;;;;;;;3.63;1.48;;;4.10;99.90;;;;;;4928685;28;20125;-75
2023/02/25 02:02:02;;;;;;;3.33;1.63;;;4.10;99.90;;;;;;4943333;28;20340;-74
2023/02/25 02:04:29;;;;;;;3.55;1.67;;;4.10;99.90;;;;;;4926962;28;20130;-74
2023/02/25 02:06:56;;;;;;;3.67;2.20;;;4.10;99.90;;;;;;4936960;28;20047;-74
2023/02/25 02:09:27;;;;;;;3.22;1.13;;;4.20;99.90;;;;;;4943796;28;20315;-74
2023/02/25 02:12:01;;;;;;;5.22;1.90;;;4.20;99.90;;;;;;4962127;28;20134;-74
2023/02/25 02:14:33;;;;;;;3.67;1.40;;;4.20;99.90;;;;;;4965449;28;20051;-74
2023/02/25 02:17:15;;;;;;;5.35;1.60;;;4.30;99.90;;;;;;4965903;28;20069;-74
2023/02/25 02:19:50;;;;;;;8.00;2.38;;;4.30;99.90;;;;;;4944146;28;20515;-75
2023/02/25 02:22:17;;;;;;;5.25;2.17;;;4.40;99.90;;;;;;4960455;28;20110;-74
2023/02/25 02:25:00;;;;;;;2.90;1.55;;;4.40;99.90;;;;;;4954775;28;20163;-74
2023/02/25 02:27:52;;;;;;;3.63;1.50;;;4.50;99.90;;;;;;4966321;28;20137;-74
2023/02/25 02:30:52;;;;;;;5.60;1.65;;;4.50;99.90;;;;;;4963347;28;20403;-74
2023/02/25 02:33:49;;;;;;;3.80;1.88;;;4.50;99.90;;;;;;4628424;28;10000843;-74
2023/02/25 02:36:43;;;;;;;3.88;1.88;;;4.50;99.90;;;;;;4979443;28;20266;-74
2023/02/25 02:39:35;;;;;;;3.63;1.63;;;4.50;99.90;;;;;;4970038;28;20421;-74
2023/02/25 02:42:10;;;;;;;2.67;1.40;;;4.50;99.90;;;;;;4947569;28;20093;-74
2023/02/25 02:44:52;;;;;;;3.33;1.90;;;4.50;99.90;;;;;;4970081;28;20062;-74
2023/02/25 02:47:22;;;;;;;3.05;1.67;;;4.50;99.90;;;;;;4984342;28;20050;-74
2023/02/25 02:50:18;;;;;;;3.45;1.77;;;4.40;99.90;;;;;;4949510;29;20051;-74
2023/02/25 02:52:50;;;;;;;5.68;1.90;;;4.40;99.90;;;;;;4944434;28;20081;-74
2023/02/25 02:55:21;;;;;;;4.40;1.70;;;4.40;99.90;;;;;;4988016;28;20054;-74
2023/02/25 02:57:49;;;;;;;4.30;1.35;;;4.40;99.90;;;;;;4984284;28;20403;-74
2023/02/25 03:00:17;;;;;;;4.60;1.70;;;4.40;99.90;;;;;;4967278;28;20101;-74
2023/02/25 03:02:56;;;;;;;3.40;1.35;;;4.40;99.90;;;;;;4982927;28;20105;-74
2023/02/25 03:05:25;;;;;;;2.20;1.10;;;4.40;99.90;;;;;;4967900;28;20137;-73
2023/02/25 03:07:57;;;;;;;3.10;1.30;;;4.40;99.90;;;;;;4951348;28;20082;-74
2023/02/25 03:10:24;;;;;;;4.97;1.40;;;4.40;99.90;;;;;;4965964;28;20055;-74
2023/02/25 03:12:51;;;;;;;5.57;1.67;;;4.40;99.90;;;;;;4956770;28;20497;-74
2023/02/25 03:15:18;;;;;;;5.88;2.50;;;4.40;99.90;;;;;;4999272;28;20080;-74
2023/02/25 03:17:48;;;;;;;4.78;1.90;;;4.40;99.90;;;;;;4993145;28;20516;-74
2023/02/25 03:20:18;;;;;;;3.13;1.85;;;4.40;99.90;;;;;;4964980;28;20588;-74
2023/02/25 03:22:46;;;;;;;3.40;1.48;;;4.40;99.90;;;;;;4971611;28;20092;-74
2023/02/25 03:25:52;;;;;;;1.88;1.30;;;4.40;99.90;;;;;;4973605;28;20127;-74
2023/02/25 03:28:32;;;;;;;2.70;1.13;;;4.40;99.90;;;;;;4963899;28;20083;-74
2023/02/25 03:31:11;;;;;;;3.05;1.45;;;4.30;99.90;;;;;;4931942;29;20495;-74
2023/02/25 03:33:55;;;;;;;3.20;1.40;;;4.30;99.90;;;;;;4955745;28;20050;-74
2023/02/25 03:36:32;;;;;;;4.22;1.33;;;4.30;99.90;;;;;;4981170;28;20512;-74
2023/02/25 03:39:02;;;;;;;4.28;1.77;;;4.30;99.90;;;;;;4982405;28;20137;-74
2023/02/25 03:41:34;;;;;;;3.33;1.60;;;4.30;99.90;;;;;;4963680;28;20049;-74
2023/02/25 03:44:01;;;;;;;2.53;1.13;;;4.30;99.90;;;;;;4982130;28;20042;-73
2023/02/25 03:46:27;;;;;;;5.63;1.90;;;4.20;99.90;;;;;;4934586;28;20077;-74
2023/02/25 03:48:54;;;;;;;3.05;1.30;;;4.10;99.90;;;;;;4931271;29;20066;-74
2023/02/25 03:51:35;;;;;;;2.28;1.13;;;4.10;99.90;;;;;;4946685;29;20219;-73
2023/02/25 03:54:02;;;;;;;4.10;1.63;;;4.00;99.90;;;;;;4970047;28;20494;-74
2023/02/25 03:56:29;;;;;;;2.50;1.38;;;4.00;99.90;;;;;;4964748;28;20043;-74
2023/02/25 03:58:56;;;;;;;3.72;1.70;;;3.90;99.90;;;;;;5001470;28;20073;-74
2023/02/25 04:01:25;;;;;;;2.92;1.40;;;3.90;99.90;;;;;;5001628;28;20046;-73
2023/02/25 04:03:52;;;;;;;4.90;1.63;;;4.00;99.90;;;;;;4981043;28;20046;-74
2023/02/25 04:06:21;;;;;;;4.40;1.83;;;4.00;99.90;;;;;;4959961;28;20134;-74
2023/02/25 04:08:49;;;;;;;3.67;1.30;;;4.00;99.90;;;;;;4966388;28;20116;-74
2023/02/25 04:11:16;;;;;;;3.10;1.25;;;4.00;99.90;;;;;;4961215;28;20093;-74
2023/02/25 04:13:43;;;;;;;2.72;1.33;;;4.10;99.90;;;;;;4953001;28;20125;-74
2023/02/25 04:16:10;;;;;;;4.60;2.13;;;4.10;99.90;;;;;;4962930;28;20062;-74
2023/02/25 04:18:37;;;;;;;3.83;1.50;;;4.20;99.90;;;;;;4981623;28;20134;-74
2023/02/25 04:21:05;;;;;;;5.20;1.35;;;4.20;99.90;;;;;;4949395;28;20138;-74
2023/02/25 04:23:33;;;;;;;5.07;1.98;;;4.20;99.90;;;;;;4966364;28;20046;-74
2023/02/25 04:26:01;;;;;;;4.57;2.15;;;4.20;99.90;;;;;;4976627;28;20062;-74
2023/02/25 04:28:28;;;;;;;2.25;1.17;;;4.20;99.90;;;;;;4982425;28;20084;-74
2023/02/25 04:30:55;;;;;;;5.22;1.67;;;4.20;99.90;;;;;;4947907;28;20051;-74
2023/02/25 04:33:22;;;;;;;3.67;1.15;;;4.20;99.90;;;;;;4974288;28;20379;-74
2023/02/25 04:35:49;;;;;;;2.67;1.20;;;4.30;99.90;;;;;;4971846;28;20046;-74
2023/02/25 04:38:16;;;;;;;3.20;1.40;;;4.30;99.90;;;;;;5001459;28;20057;-74
2023/02/25 04:40:43;;;;;;;4.50;1.45;;;4.30;99.90;;;;;;4999268;28;20130;-74
2023/02/25 04:43:10;;;;;;;3.35;1.25;;;4.30;99.90;;;;;;5000850;28;20646;-74
2023/02/25 04:45:37;;;;;;;4.40;1.40;;;4.30;99.90;;;;;;4971077;28;20126;-74
2023/02/25 04:48:05;;;;;;;1.80;1.23;;;4.20;99.90;;;;;;4984484;28;20635;-74
2023/02/25 04:50:32;;;;;;;4.43;1.60;;;4.30;99.90;;;;;;4985645;28;20042;-75
2023/02/25 04:53:01;;;;;;;3.75;1.85;;;4.20;99.90;;;;;;4984739;28;20081;-75
2023/02/25 04:55:34;;;;;;;2.97;1.33;;;4.20;99.90;;;;;;4967130;28;20506;-74
2023/02/25 04:58:02;;;;;;;5.25;1.77;;;4.20;99.90;;;;;;4965765;28;20141;-74
2023/02/25 05:00:28;;;;;;;5.00;1.95;;;4.20;99.90;;;;;;4977359;28;20053;-74
2023/02/25 05:02:55;;;;;;;4.53;1.92;;;4.20;99.90;;;;;;4953230;28;20517;-74
2023/02/25 05:05:22;;;;;;;2.00;1.40;;;4.20;99.90;;;;;;4985193;28;20805;-74
2023/02/25 05:07:49;;;;;;;4.95;1.67;;;4.20;99.90;;;;;;4985028;28;20866;-74
2023/02/25 05:10:16;;;;;;;3.90;1.58;;;4.20;99.90;;;;;;4998967;28;20050;-74
2023/02/25 05:12:43;;;;;;;3.20;1.30;;;4.20;99.90;;;;;;4974578;28;20085;-74
2023/02/25 05:15:10;;;;;;;3.38;1.50;;;4.20;99.90;;;;;;4964723;28;20074;-74
2023/02/25 05:17:37;;;;;;;4.93;1.70;;;4.20;99.90;;;;;;4973398;28;20617;-74
2023/02/25 05:20:11;;;;;;;3.53;1.45;;;4.20;99.90;;;;;;4929451;29;20055;-74
2023/02/25 05:22:38;;;;;;;4.60;1.50;;;4.20;99.90;;;;;;4982860;28;20047;-74
2023/02/25 05:25:06;;;;;;;5.20;1.50;;;4.20;99.90;;;;;;4964361;28;20414;-74
2023/02/25 05:27:34;;;;;;;4.47;1.52;;;4.20;99.90;;;;;;4999847;28;20354;-74
2023/02/25 05:30:00;;;;;;;2.58;1.50;;;4.20;99.90;;;;;;5000031;28;20050;-74
2023/02/25 05:32:29;;;;;;;3.70;1.20;;;4.20;99.90;;;;;;4964126;28;20051;-74
2023/02/25 05:34:56;;;;;;;4.50;1.73;;;4.30;99.90;;;;;;4937757;28;20192;-73
2023/02/25 05:37:23;;;;;;;5.10;1.73;;;4.20;99.90;;;;;;4983142;28;20097;-74
2023/02/25 05:39:49;;;;;;;7.30;2.35;;;4.20;99.90;;;;;;4982490;28;20134;-74
2023/02/25 05:42:16;;;;;;;6.32;2.28;;;4.20;99.90;;;;;;4985105;28;20134;-74
2023/02/25 05:44:43;;;;;;;3.63;1.92;;;4.20;99.90;;;;;;4975264;28;20154;-74
2023/02/25 05:47:10;;;;;;;5.38;1.77;;;4.20;99.90;;;;;;4986710;28;20133;-73
2023/02/25 05:49:36;;;;;;;6.22;2.33;;;4.20;99.90;;;;;;4975946;28;20051;-74
2023/02/25 05:52:03;;;;;;;7.30;1.95;;;4.20;99.90;;;;;;4967728;28;20055;-73
2023/02/25 05:54:30;;;;;;;5.07;2.00;;;4.20;99.90;;;;;;4972069;28;20054;-74
2023/02/25 05:56:57;;;;;;;5.45;1.90;;;4.20;99.90;;;;;;4982641;28;20590;-74
2023/02/25 05:59:23;;;;;;;3.28;1.63;;;4.20;99.90;;;;;;4987767;28;20064;-74
2023/02/25 06:01:53;;;;;;;6.32;2.17;;;4.20;99.90;;;;;;4977211;28;20541;-74
2023/02/25 06:04:21;;;;;;;3.08;1.15;;;4.20;99.90;;;;;;4962886;28;20066;-74
2023/02/25 06:06:49;;;;;;;5.25;1.70;;;4.30;99.90;;;;;;4950931;28;20697;-73
2023/02/25 06:09:17;;;;;;;2.88;1.30;;;4.20;99.90;;;;;;4946658;28;20059;-74
2023/02/25 06:11:45;;;;;;;4.28;2.10;;;4.20;99.90;;;;;;4945007;28;20052;-73
2023/02/25 06:14:12;;;;;;;4.93;1.48;;;4.20;99.90;;;;;;4963281;28;20082;-74
2023/02/25 06:16:39;;;;;;;5.50;2.28;;;4.20;99.90;;;;;;4960908;28;20406;-74
2023/02/25 06:19:06;;;;;;;4.88;2.30;;;4.20;99.90;;;;;;5000315;28;20161;-74
2023/02/25 06:21:33;;;;;;;7.43;3.15;;;4.20;99.90;;;;;;4999193;28;20170;-74
2023/02/25 06:24:01;;;;;;;5.07;1.88;;;4.20;99.90;;;;;;4985459;28;20047;-74
2023/02/25 06:26:31;;;;;;;5.45;2.72;;;4.20;99.90;;;;;;4969122;28;20042;-74
2023/02/25 06:28:57;;;;;;;2.97;1.73;;;4.20;99.90;;;;;;4979931;28;20592;-74
2023/02/25 06:31:24;;;;;;;5.07;2.17;;;4.20;99.90;;;;;;4956395;28;20129;-74
2023/02/25 06:33:53;;;;;;;4.60;2.10;;;4.20;99.90;;;;;;4978189;28;20051;-74
2023/02/25 06:36:20;;;;;;;4.57;2.35;;;4.20;99.90;;;;;;4988269;28;20082;-74
2023/02/25 06:38:48;;;;;;;3.28;1.60;;;4.10;99.90;;;;;;4974380;28;20059;-74
2023/02/25 06:41:16;;;;;;;5.93;2.15;;;4.10;99.90;;;;;;4941199;28;20057;-74
2023/02/25 06:43:43;;;;;;;4.60;1.80;;;4.10;99.90;;;;;;4962408;28;20046;-74
2023/02/25 06:46:12;;;;;;;4.00;2.10;;;4.10;99.90;;;;;;4971589;28;20458;-74
2023/02/25 06:48:39;;;;;;;4.88;2.20;;;4.10;99.90;;;;;;4943898;28;20138;-73
2023/02/25 06:51:08;;;;;;;6.07;1.80;;;4.10;99.90;;;;;;4944850;28;20059;-73
2023/02/25 06:53:36;;;;;;;3.03;1.88;;;4.10;99.90;;;;;;4955419;28;20071;-73
2023/02/25 06:56:03;;;;;;;4.78;1.75;;;4.10;99.90;;;;;;4961469;28;20051;-73
2023/02/25 06:58:31;;;;;;;5.97;2.25;;;4.10;99.90;;;;;;4978226;28;20428;-73
2023/02/25 07:00:58;;;;;;;6.03;2.55;;;4.10;99.90;;;;;;4975208;28;20413;-74
2023/02/25 07:03:25;;;;;;;4.38;1.73;;;4.10;99.90;;;;;;4973969;28;20302;-74
2023/02/25 07:05:52;;;;;;;3.17;1.73;;;4.10;99.90;;;;;;4959348;28;20113;-75
2023/02/25 07:08:19;;;;;;;2.92;1.60;;;4.20;99.90;;;;;;4960757;28;20058;-75
2023/02/25 07:10:46;;;;;;;6.65;1.90;;;4.20;99.90;;;;;;4958872;28;20229;-74
2023/02/25 07:13:13;;;;;;;3.55;1.50;;;4.20;99.90;;;;;;4962088;28;20054;-74
2023/02/25 07:15:39;;;;;;;4.25;2.13;;;4.20;99.90;;;;;;4972697;28;20112;-74
2023/02/25 07:18:06;;;;;;;5.50;1.80;;;4.30;99.90;;;;;;4958493;28;20057;-74
2023/02/25 07:20:33;;;;;;;5.03;1.80;;;4.30;99.90;;;;;;4958834;28;20158;-74
2023/02/25 07:23:03;;;;;;;2.78;1.45;;;4.30;99.90;;;;;;4964720;28;20081;-74
2023/02/25 07:25:30;;;;;;;2.92;1.58;;;4.30;99.90;;;;;;4959914;28;21018;-74
2023/02/25 07:27:56;;;;;;;4.75;1.90;;;4.30;99.90;;;;;;4979460;28;20154;-74
2023/02/25 07:30:23;;;;;;;5.53;1.67;;;4.30;99.90;;;;;;4990092;28;20470;-74
2023/02/25 07:32:50;;;;;;;2.80;1.20;;;4.40;99.90;;;;;;4958839;28;20063;-74
2023/02/25 07:35:17;;;;;;;4.55;1.52;;;4.40;99.90;;;;;;4965035;28;20158;-75
2023/02/25 07:37:44;;;;;;;3.53;1.42;;;4.40;99.90;;;;;;4962866;28;20050;-75
2023/02/25 07:40:11;;;;;;;4.15;1.38;;;4.50;99.90;;;;;;4952173;28;20105;-75
2023/02/25 07:42:41;;;;;;;6.32;1.77;;;4.50;99.90;;;;;;4949713;28;20050;-75
2023/02/25 07:45:10;;;;;;;7.13;1.63;;;4.40;99.90;;;;;;4934947;28;20045;-74
2023/02/25 07:47:37;;;;;;;4.13;1.77;;;4.50;99.90;;;;;;4959532;28;20566;-74
2023/02/25 07:50:07;;;;;;;7.35;2.00;;;4.50;99.90;;;;;;4945035;28;20243;-75
2023/02/25 07:52:38;;;;;;;5.05;1.85;;;4.40;99.90;;;;;;4973845;28;20046;-74
2023/02/25 07:55:05;;;;;;;2.60;1.23;;;4.50;99.90;;;;;;4958090;28;20051;-75
2023/02/25 07:57:32;;;;;;;4.45;1.65;;;4.50;99.90;;;;;;4952164;28;20897;-75
2023/02/25 07:59:59;;;;;;;6.72;1.77;;;4.50;99.90;;;;;;4924342;28;20051;-75
2023/02/25 08:02:26;;;;;;;5.90;1.70;;;4.60;99.90;;;;;;4960129;28;20047;-75
2023/02/25 08:04:53;;;;;;;2.97;1.67;;;4.60;99.90;;;;;;4941604;28;20065;-74
2023/02/25 08:07:20;;;;;;;2.90;1.42;;;4.70;99.90;;;;;;4972558;28;20050;-75
2023/02/25 08:09:46;;;;;;;2.30;1.40;;;4.80;99.90;;;;;;4937713;28;20517;-74
2023/02/25 08:12:13;;;;;;;3.72;1.48;;;4.80;99.90;;;;;;4956670;28;20043;-76
2023/02/25 08:14:40;;;;;;;3.95;1.60;;;4.80;99.90;;;;;;4974586;28;20875;-75
2023/02/25 08:17:07;;;;;;;4.25;1.92;;;4.80;99.90;;;;;;4956819;28;20402;-75
2023/02/25 08:19:34;;;;;;;7.82;2.22;;;4.90;99.90;;;;;;4953608;28;20055;-75
2023/02/25 08:22:00;;;;;;;4.38;1.80;;;4.90;99.90;;;;;;4942663;28;20050;-74
2023/02/25 08:24:29;;;;;;;4.57;1.85;;;4.90;99.90;;;;;;4940083;28;20970;-74
2023/02/25 08:26:56;;;;;;;6.97;2.35;;;5.00;99.90;;;;;;4953556;28;20066;-74
2023/02/25 08:29:23;;;;;;;7.40;2.50;;;5.00;99.90;;;;;;4954361;28;20050;-75
2023/02/25 08:31:51;;;;;;;6.50;3.10;;;5.00;99.90;;;;;;4973737;28;20117;-75
2023/02/25 08:34:18;;;;;;;5.38;2.38;;;5.00;99.90;;;;;;4973647;28;20565;-74
2023/02/25 08:36:44;;;;;;;8.05;3.20;;;5.00;99.90;;;;;;4971659;28;20055;-74
2023/02/25 08:39:11;;;;;;;4.70;2.65;;;5.00;99.90;;;;;;4956792;28;20043;-75
2023/02/25 08:41:38;;;;;;;7.10;2.53;;;5.00;99.90;;;;;;4971323;28;20056;-74
2023/02/25 08:44:05;;;;;;;4.47;2.00;;;5.20;99.90;;;;;;4970546;28;20146;-75
2023/02/25 08:46:32;;;;;;;5.97;2.83;;;5.30;99.90;;;;;;4969714;28;20051;-77
2023/02/25 08:48:59;;;;;;;7.93;3.53;;;5.30;99.90;;;;;;4963864;28;20483;-75
2023/02/25 08:51:32;;;;;;;5.90;2.50;;;5.20;99.90;;;;;;4929248;28;20515;-75
2023/02/25 08:54:01;;;;;;;5.35;2.70;;;5.30;99.90;;;;;;4956468;28;20047;-75
2023/02/25 08:56:28;;;;;;;7.18;2.33;;;5.30;99.90;;;;;;4946093;28;20181;-75
2023/02/25 08:58:55;;;;;;;8.02;2.42;;;5.40;99.90;;;;;;4936071;28;20070;-75
2023/02/25 09:01:22;;;;;;;5.47;2.08;;;5.60;99.90;;;;;;4935972;28;20049;-75
2023/02/25 09:03:52;;;;;;;6.40;2.35;;;5.60;99.90;;;;;;4948319;28;20078;-74
2023/02/25 09:06:24;;;;;;;8.15;3.75;;;5.70;99.90;;;;;;4968541;28;20066;-75
2023/02/25 09:08:51;;;;;;;5.65;2.67;;;5.60;99.90;;;;;;4934450;28;20071;-74
2023/02/25 09:11:18;;;;;;;11.73;3.58;;;5.70;99.90;;;;;;4951856;28;20518;-74
2023/02/25 09:13:45;;;;;;;6.65;2.38;;;5.60;99.90;;;;;;4948100;28;20572;-75
2023/02/25 09:16:16;;;;;;;6.93;2.35;;;5.70;99.90;;;;;;4954951;28;20223;-75
2023/02/25 09:18:45;;;;;;;9.73;3.20;;;5.70;99.90;;;;;;4952607;28;20109;-75
2023/02/25 09:21:12;;;;;;;7.38;3.38;;;5.80;99.90;;;;;;4970695;28;20050;-75
2023/02/25 09:23:39;;;;;;;8.07;3.72;;;5.80;99.90;;;;;;4974269;28;20354;-76
2023/02/25 09:26:08;;;;;;;7.07;3.45;;;5.90;99.90;;;;;;4955274;28;20149;-80
2023/02/25 09:28:35;;;;;;;7.10;3.10;;;5.90;99.90;;;;;;4955218;28;20060;-74
2023/02/25 09:31:02;;;;;;;6.70;3.15;;;6.00;99.90;;;;;;4952872;28;20050;-74
2023/02/25 09:33:32;;;;;;;7.00;2.75;;;6.10;99.90;;;;;;4966339;28;20080;-74
2023/02/25 09:36:09;;;;;;;6.60;3.13;;;6.20;99.90;;;;;;4983144;28;20402;-75
2023/02/25 09:38:36;;;;;;;7.00;3.38;;;6.20;99.90;;;;;;4955713;28;20051;-74
2023/02/25 09:41:10;;;;;;;5.72;2.67;;;6.20;99.90;;;;;;4954912;28;20169;-74
2023/02/25 09:43:39;;;;;;;6.38;2.38;;;6.30;99.90;;;;;;4960727;28;20505;-74
2023/02/25 09:46:12;;;;;;;7.05;3.40;;;6.40;99.90;;;;;;4962467;28;20102;-74
2023/02/25 09:48:59;;;;;;;6.05;3.08;;;6.30;99.90;;;;;;4938961;28;20516;-75
2023/02/25 09:51:30;;;;;;;4.50;2.50;;;6.40;99.90;;;;;;4955051;28;20149;-74
2023/02/25 09:54:05;;;;;;;7.93;3.30;;;6.30;99.90;;;;;;4941121;28;20061;-75
2023/02/25 09:56:34;;;;;;;4.90;2.95;;;6.20;99.90;;;;;;4938560;28;20081;-74
2023/02/25 09:59:00;;;;;;;3.65;2.00;;;6.10;99.90;;;;;;4938781;28;20058;-74
2023/02/25 10:01:33;;;;;;;5.85;2.50;;;6.10;99.90;;;;;;4953482;28;20098;-74
2023/02/25 10:04:21;;;;;;;4.68;1.63;;;6.30;99.90;;;;;;4939314;28;20066;-74
2023/02/25 10:06:49;;;;;;;6.63;2.63;;;6.40;99.90;;;;;;4953487;28;20047;-75
2023/02/25 10:09:45;;;;;;;5.15;2.17;;;6.50;99.90;;;;;;4935294;28;20073;-75
2023/02/25 10:12:33;;;;;;;6.82;2.33;;;6.70;99.90;;;;;;4950085;28;20051;-74
2023/02/25 10:15:38;;;;;;;4.60;2.25;;;6.90;99.90;;;;;;4968608;28;20058;-74
2023/02/25 10:18:30;;;;;;;5.82;2.08;;;7.10;99.90;;;;;;4943215;28;20083;-74
2023/02/25 10:21:06;;;;;;;7.20;2.20;;;7.30;99.90;;;;;;4952535;28;20154;-74
2023/02/25 10:24:02;;;;;;;5.70;2.63;;;7.40;99.90;;;;;;4939920;28;20184;-74
2023/02/25 10:26:33;;;;;;;9.32;2.75;;;7.40;99.90;;;;;;4965077;28;20076;-74
2023/02/25 10:29:10;;;;;;;5.28;2.05;;;7.50;99.90;;;;;;4950286;28;20317;-74
2023/02/25 10:31:37;;;;;;;5.78;2.15;;;7.70;99.90;;;;;;4947789;28;20492;-74
2023/02/25 10:34:22;;;;;;;5.78;2.17;;;7.70;99.90;;;;;;4949086;28;20066;-74
2023/02/25 10:36:56;;;;;;;5.30;2.03;;;7.70;99.90;;;;;;4949444;28;20043;-74
2023/02/25 10:39:23;;;;;;;6.63;2.63;;;7.70;99.90;;;;;;4976590;28;20326;-72
2023/02/25 10:41:51;;;;;;;7.10;2.03;;;7.70;99.90;;;;;;4956395;28;20098;-74
2023/02/25 10:44:18;;;;;;;13.73;2.67;;;7.80;99.90;;;;;;4960132;28;20058;-74
2023/02/25 10:47:00;;;;;;;7.03;1.85;;;7.70;99.90;;;;;;4983822;28;20055;-74
2023/02/25 10:49:27;;;;;;;7.30;2.88;;;7.70;99.90;;;;;;4972059;28;20102;-74
2023/02/25 10:52:13;;;;;;;5.03;1.90;;;7.70;99.90;;;;;;4943034;28;20055;-75
2023/02/25 10:54:48;;;;;;;6.10;2.22;;;8.00;99.90;;;;;;4956993;28;20619;-74
2023/02/25 10:57:17;;;;;;;3.47;1.60;;;8.10;99.90;;;;;;4959092;28;20101;-75
2023/02/25 10:59:44;;;;;;;2.83;1.20;;;8.30;99.90;;;;;;4985920;28;20055;-74
2023/02/25 11:02:25;;;;;;;5.97;1.40;;;8.50;99.90;;;;;;4963145;28;20120;-74
2023/02/25 11:04:52;;;;;;;5.95;2.10;;;8.50;99.90;;;;;;4967285;28;20055;-74
2023/02/25 11:07:28;;;;;;;6.30;2.10;;;8.40;99.90;;;;;;4978757;28;20078;-74
2023/02/25 11:10:18;;;;;;;3.80;1.60;;;8.30;99.90;;;;;;4961384;28;20100;-75
2023/02/25 11:12:47;;;;;;;5.97;1.60;;;8.40;99.90;;;;;;4963499;28;20058;-75
2023/02/25 11:15:37;;;;;;;6.13;2.22;;;8.40;99.90;;;;;;4983822;28;20136;-75
2023/02/25 11:18:26;;;;;;;5.43;2.13;;;8.30;99.90;;;;;;4944124;28;20133;-74
2023/02/25 11:20:58;;;;;;;7.97;2.33;;;8.20;99.90;;;;;;4977972;28;20058;-74
2023/02/25 11:23:30;;;;;;;7.05;2.03;;;8.10;99.90;;;;;;4966913;28;20129;-74
2023/02/25 11:25:57;;;;;;;6.53;2.60;;;8.10;99.90;;;;;;4977284;28;20083;-74
2023/02/25 11:28:28;;;;;;;3.88;1.70;;;8.30;99.90;;;;;;4961417;28;20090;-74
2023/02/25 11:31:06;;;;;;;5.07;1.58;;;8.50;99.90;;;;;;4944358;29;20051;-74
2023/02/25 11:33:35;;;;;;;4.43;1.60;;;8.50;99.90;;;;;;4945617;28;20137;-74
2023/02/25 11:36:02;;;;;;;6.18;2.47;;;8.40;99.90;;;;;;4997416;28;20125;-74
2023/02/25 11:38:41;;;;;;;6.60;1.80;;;8.30;99.90;;;;;;4994417;28;20101;-74
2023/02/25 11:41:20;;;;;;;4.15;1.58;;;8.30;99.90;;;;;;4955298;28;20059;-75
2023/02/25 11:43:48;;;;;;;2.85;1.35;;;8.50;99.90;;;;;;4954708;28;20050;-75
2023/02/25 11:46:23;;;;;;;3.47;1.25;;;8.60;99.90;;;;;;4941429;28;20069;-75
2023/02/25 11:48:51;;;;;;;3.22;1.25;;;8.70;99.90;;;;;;4951362;28;20055;-75
2023/02/25 11:51:26;;;;;;;6.18;1.83;;;9.00;99.90;;;;;;4952768;28;20470;-75
2023/02/25 11:54:26;;;;;;;3.35;1.52;;;9.20;99.90;;;;;;4958080;28;20050;-74
2023/02/25 11:57:05;;;;;;;3.90;1.30;;;9.50;99.90;;;;;;4968286;28;20145;-75
2023/02/25 11:59:51;;;;;;;2.45;0.98;;;9.40;99.90;;;;;;4978268;28;20181;-75
2023/02/25 12:02:26;;;;;;;2.78;0.90;;;9.30;99.90;;;;;;4948319;28;20137;-75
2023/02/25 12:05:33;;;;;;;1.67;0.85;;;9.20;99.90;;;;;;4962660;28;20682;-75
2023/02/25 12:08:31;;;;;;;3.50;1.23;;;9.10;99.90;;;;;;4949817;28;20069;-75
2023/02/25 12:11:17;;;;;;;3.67;1.30;;;8.80;99.90;;;;;;4951249;28;20055;-74
2023/02/25 12:14:16;;;;;;;5.65;1.75;;;8.70;99.90;;;;;;4949194;28;20190;-75
2023/02/25 12:16:55;;;;;;;5.55;1.50;;;8.50;99.90;;;;;;4924239;28;20059;-75
2023/02/25 12:19:25;;;;;;;4.13;1.45;;;8.40;99.90;;;;;;4971490;28;20106;-75
2023/02/25 12:22:27;;;;;;;6.97;1.42;;;8.20;99.90;;;;;;4954223;28;20073;-75
2023/02/25 12:25:09;;;;;;;3.80;1.67;;;8.00;99.90;;;;;;4961394;28;20109;-75
2023/02/25 12:27:46;;;;;;;4.30;2.10;;;7.80;99.90;;;;;;4976075;28;20088;-75
2023/02/25 12:30:21;;;;;;;3.92;1.95;;;7.80;99.90;;;;;;4967778;28;20498;-75
2023/02/25 12:32:52;;;;;;;7.35;2.58;;;7.80;99.90;;;;;;4966760;28;20085;-74
2023/02/25 12:35:34;;;;;;;3.83;1.63;;;7.50;99.90;;;;;;4958854;28;20370;-74
2023/02/25 12:38:27;;;;;;;3.20;1.40;;;7.30;99.90;;;;;;4974884;28;20113;-74
2023/02/25 12:41:12;;;;;;;3.03;1.10;;;7.20;99.90;;;;;;4963565;28;20055;-77
2023/02/25 12:43:52;;;;;;;1.88;1.10;;;7.20;99.90;;;;;;4960766;28;20084;-77
2023/02/25 12:46:38;;;;;;;1.52;0.80;;;7.30;99.90;;;;;;4973208;28;20399;-76
2023/02/25 12:49:32;;;;;;;0.93;0.90;;;7.40;99.90;;;;;;4950924;28;20078;-84
2023/02/25 12:52:08;;;;;;;1.27;0.80;;;7.50;99.90;;;;;;4952766;28;20046;-75
2023/02/25 12:54:44;;;;;;;1.13;0.70;;;7.70;99.90;;;;;;4957350;28;20094;-75
2023/02/25 12:57:44;;;;;;;1.33;0.80;;;7.80;99.90;;;;;;4950024;28;20146;-76
2023/02/25 13:00:33;;;;;;;1.27;0.68;;;8.00;99.90;;;;;;4931721;28;20470;-80
2023/02/25 13:03:23;;;;;;;1.27;0.80;;;8.20;99.90;;;;;;4954603;28;20054;-78
2023/02/25 13:06:02;;;;;;;2.65;1.08;;;8.50;99.90;;;;;;4934523;28;20584;-79
2023/02/25 13:08:51;;;;;;;1.75;0.90;;;8.70;99.90;;;;;;4954700;28;20051;-79
2023/02/25 13:11:24;;;;;;;2.08;1.02;;;8.50;99.90;;;;;;4945894;28;20443;-79
2023/02/25 13:14:00;;;;;;;;;;;8.30;99.90;;;;;;4947705;28;20187;-78
2023/02/25 13:17:16;;;;;;;4.75;1.35;;;8.00;99.90;;;;;;4966082;28;19997;-79
2023/02/25 13:19:45;;;;;;;3.35;1.40;;;7.50;99.90;;;;;;4939994;28;20820;-79
2023/02/25 13:22:49;;;;;;;1.63;0.82;;;7.50;99.90;;;;;;4950644;28;20451;-79